createdAt,value
2018-08-16T00:00:37.076Z,0
2018-08-16T00:01:17.512Z,0
2018-08-16T00:01:58.034Z,0
2018-08-16T00:02:38.521Z,0
2018-08-16T00:03:18.989Z,0
2018-08-16T00:03:59.504Z,0
2018-08-16T00:04:39.950Z,0
2018-08-16T00:05:20.453Z,0
2018-08-16T00:06:00.982Z,0
2018-08-16T00:06:41.428Z,0
2018-08-16T00:07:21.904Z,0
2018-08-16T00:08:02.447Z,0
2018-08-16T00:08:42.872Z,0
2018-08-16T00:09:23.339Z,0
2018-08-16T00:10:03.841Z,0
2018-08-16T00:10:44.353Z,0
2018-08-16T00:11:24.849Z,0
2018-08-16T00:12:05.328Z,0
2018-08-16T00:12:45.823Z,0
2018-08-16T00:13:26.301Z,0
2018-08-16T00:14:06.846Z,0
2018-08-16T00:14:47.243Z,0
2018-08-16T00:15:27.784Z,0
2018-08-16T00:16:08.257Z,0
2018-08-16T00:16:48.795Z,0
2018-08-16T00:17:29.217Z,0
2018-08-16T00:18:09.700Z,0
2018-08-16T00:18:50.262Z,0
2018-08-16T00:19:30.692Z,0
2018-08-16T00:20:11.137Z,0
2018-08-16T00:20:51.641Z,0
2018-08-16T00:21:32.096Z,0
2018-08-16T00:22:12.604Z,0
2018-08-16T00:22:53.114Z,0
2018-08-16T00:23:33.606Z,0
2018-08-16T00:24:14.119Z,0
2018-08-16T00:24:54.569Z,0
2018-08-16T00:25:35.065Z,0
2018-08-16T00:26:15.509Z,0
2018-08-16T00:26:56.002Z,0
2018-08-16T00:27:36.548Z,0
2018-08-16T00:28:17.007Z,0
2018-08-16T00:28:57.526Z,0
2018-08-16T00:29:37.963Z,0
2018-08-16T00:30:18.514Z,0
2018-08-16T00:30:59.027Z,0
2018-08-16T00:31:39.463Z,0
2018-08-16T00:32:19.965Z,0
2018-08-16T00:33:00.459Z,0
2018-08-16T00:33:40.943Z,0
2018-08-16T00:34:21.468Z,0
2018-08-16T00:35:01.941Z,0
2018-08-16T00:35:42.425Z,0
2018-08-16T00:36:22.940Z,0
2018-08-16T00:37:03.403Z,0
2018-08-16T00:37:43.963Z,0
2018-08-16T00:38:24.422Z,0
2018-08-16T00:39:04.901Z,0
2018-08-16T00:39:45.361Z,0
2018-08-16T00:40:25.850Z,0
2018-08-16T00:41:06.346Z,0
2018-08-16T00:41:46.856Z,0
2018-08-16T00:42:27.380Z,0
2018-08-16T00:43:07.810Z,0
2018-08-16T00:43:48.298Z,0
2018-08-16T00:44:28.803Z,0
2018-08-16T00:45:09.315Z,0
2018-08-16T00:45:49.752Z,0
2018-08-16T00:46:30.274Z,0
2018-08-16T00:47:10.751Z,0
2018-08-16T00:47:51.236Z,0
2018-08-16T00:48:31.737Z,0
2018-08-16T00:49:12.212Z,0
2018-08-16T00:49:52.731Z,0
2018-08-16T00:50:33.243Z,0
2018-08-16T00:51:13.711Z,0
2018-08-16T00:51:54.193Z,0
2018-08-16T00:52:34.715Z,0
2018-08-16T00:53:15.209Z,0
2018-08-16T00:53:55.674Z,0
2018-08-16T00:54:36.186Z,0
2018-08-16T00:55:16.683Z,0
2018-08-16T00:55:57.190Z,0
2018-08-16T00:56:37.681Z,0
2018-08-16T00:57:18.175Z,0
2018-08-16T00:57:58.643Z,0
2018-08-16T00:58:39.109Z,0
2018-08-16T00:59:19.639Z,0
2018-08-16T01:00:00.089Z,0
2018-08-16T01:00:40.609Z,0
2018-08-16T01:01:21.081Z,0
2018-08-16T01:02:01.580Z,0
2018-08-16T01:02:42.092Z,0
2018-08-16T01:03:22.575Z,0
2018-08-16T01:04:03.060Z,0
2018-08-16T01:04:43.543Z,0
2018-08-16T01:05:24.070Z,0
2018-08-16T01:06:04.503Z,0
2018-08-16T01:06:45.030Z,0
2018-08-16T01:07:25.488Z,0
2018-08-16T01:08:06.006Z,0
2018-08-16T01:08:46.539Z,0
2018-08-16T01:09:26.955Z,0
2018-08-16T01:10:07.466Z,0
2018-08-16T01:10:47.976Z,0
2018-08-16T01:11:28.436Z,0
2018-08-16T01:12:08.930Z,0
2018-08-16T01:12:49.414Z,0
2018-08-16T01:13:29.903Z,0
2018-08-16T01:14:10.444Z,0
2018-08-16T01:14:50.899Z,0
2018-08-16T01:15:31.431Z,0
2018-08-16T01:16:11.940Z,0
2018-08-16T01:16:52.403Z,0
2018-08-16T01:17:32.888Z,0
2018-08-16T01:18:13.409Z,0
2018-08-16T01:18:53.836Z,0
2018-08-16T01:19:34.350Z,0
2018-08-16T01:20:14.886Z,0
2018-08-16T01:20:55.325Z,0
2018-08-16T01:21:35.802Z,0
2018-08-16T01:22:16.273Z,0
2018-08-16T01:22:56.759Z,0
2018-08-16T01:23:37.299Z,0
2018-08-16T01:24:17.733Z,0
2018-08-16T01:24:58.203Z,0
2018-08-16T01:25:38.696Z,0
2018-08-16T01:26:19.182Z,0
2018-08-16T01:26:59.662Z,0
2018-08-16T01:27:40.101Z,0
2018-08-16T01:28:20.647Z,0
2018-08-16T01:29:01.115Z,0
2018-08-16T01:29:41.608Z,0
2018-08-16T01:30:22.147Z,0
2018-08-16T01:31:02.588Z,0
2018-08-16T01:31:43.078Z,0
2018-08-16T01:32:23.530Z,0
2018-08-16T01:33:04.061Z,0
2018-08-16T01:33:44.458Z,0
2018-08-16T01:34:24.996Z,0
2018-08-16T01:35:05.492Z,0
2018-08-16T01:35:46.074Z,0
2018-08-16T01:36:26.463Z,0
2018-08-16T01:37:07.117Z,0
2018-08-16T01:37:47.633Z,0
2018-08-16T01:38:28.117Z,0
2018-08-16T01:39:08.623Z,0
2018-08-16T01:39:49.095Z,0
2018-08-16T01:40:29.600Z,0
2018-08-16T01:41:10.070Z,0
2018-08-16T01:41:50.589Z,0
2018-08-16T01:42:31.014Z,0
2018-08-16T01:43:11.523Z,0
2018-08-16T01:43:52.053Z,0
2018-08-16T01:44:32.500Z,0
2018-08-16T01:45:12.968Z,0
2018-08-16T01:45:53.481Z,0
2018-08-16T01:46:33.953Z,0
2018-08-16T01:47:14.453Z,0
2018-08-16T01:47:54.921Z,0
2018-08-16T01:48:35.394Z,0
2018-08-16T01:49:15.883Z,0
2018-08-16T01:49:56.370Z,0
2018-08-16T01:50:36.881Z,0
2018-08-16T01:51:17.333Z,0
2018-08-16T01:51:57.824Z,0
2018-08-16T01:52:38.315Z,0
2018-08-16T01:53:18.781Z,0
2018-08-16T01:53:59.318Z,0
2018-08-16T01:54:39.766Z,0
2018-08-16T01:55:20.258Z,0
2018-08-16T01:56:00.717Z,0
2018-08-16T01:56:41.177Z,0
2018-08-16T01:57:21.685Z,0
2018-08-16T01:58:02.223Z,0
2018-08-16T01:58:42.684Z,0
2018-08-16T01:59:23.157Z,0
2018-08-16T02:00:03.622Z,0
2018-08-16T02:00:44.118Z,0
2018-08-16T02:01:24.629Z,0
2018-08-16T02:02:05.071Z,0
2018-08-16T02:02:45.573Z,0
2018-08-16T02:03:26.016Z,0
2018-08-16T02:04:06.552Z,0
2018-08-16T02:04:47.172Z,0
2018-08-16T02:05:27.722Z,0
2018-08-16T02:06:08.215Z,0
2018-08-16T02:06:48.719Z,0
2018-08-16T02:07:29.220Z,0
2018-08-16T02:08:09.666Z,0
2018-08-16T02:08:50.146Z,0
2018-08-16T02:09:30.624Z,0
2018-08-16T02:10:11.127Z,0
2018-08-16T02:10:51.575Z,0
2018-08-16T02:11:32.113Z,0
2018-08-16T02:12:12.589Z,0
2018-08-16T02:12:53.073Z,0
2018-08-16T02:13:33.550Z,0
2018-08-16T02:14:14.040Z,0
2018-08-16T02:14:54.535Z,0
2018-08-16T02:15:35.027Z,0
2018-08-16T02:16:15.511Z,0
2018-08-16T02:16:56.002Z,0
2018-08-16T02:17:36.507Z,0
2018-08-16T02:18:16.940Z,0
2018-08-16T02:18:57.472Z,0
2018-08-16T02:19:37.938Z,0
2018-08-16T02:20:18.405Z,0
2018-08-16T02:20:58.932Z,0
2018-08-16T02:21:39.425Z,0
2018-08-16T02:22:19.954Z,0
2018-08-16T02:23:00.354Z,0
2018-08-16T02:23:40.934Z,0
2018-08-16T02:24:21.358Z,0
2018-08-16T02:25:01.912Z,0
2018-08-16T02:25:42.354Z,0
2018-08-16T02:26:22.841Z,0
2018-08-16T02:27:03.660Z,0
2018-08-16T02:27:44.142Z,0
2018-08-16T02:28:24.634Z,0
2018-08-16T02:29:05.150Z,0
2018-08-16T02:29:45.611Z,0
2018-08-16T02:30:26.187Z,0
2018-08-16T02:31:06.599Z,0
2018-08-16T02:31:47.064Z,0
2018-08-16T02:32:27.585Z,0
2018-08-16T02:33:08.051Z,0
2018-08-16T02:33:48.556Z,0
2018-08-16T02:34:29.053Z,0
2018-08-16T02:35:09.515Z,0
2018-08-16T02:35:50.031Z,0
2018-08-16T02:36:30.521Z,0
2018-08-16T02:37:10.960Z,0
2018-08-16T02:37:51.475Z,0
2018-08-16T02:38:31.983Z,0
2018-08-16T02:39:12.408Z,0
2018-08-16T02:39:52.912Z,0
2018-08-16T02:40:33.397Z,0
2018-08-16T02:41:13.850Z,0
2018-08-16T02:41:54.359Z,0
2018-08-16T02:42:34.808Z,0
2018-08-16T02:43:15.313Z,0
2018-08-16T02:43:55.808Z,0
2018-08-16T02:44:36.286Z,0
2018-08-16T02:45:16.760Z,0
2018-08-16T02:45:57.258Z,0
2018-08-16T02:46:37.734Z,0
2018-08-16T02:47:18.221Z,0
2018-08-16T02:47:58.689Z,0
2018-08-16T02:48:39.196Z,0
2018-08-16T02:49:19.696Z,0
2018-08-16T02:50:00.153Z,0
2018-08-16T02:50:40.694Z,0
2018-08-16T02:51:21.190Z,0
2018-08-16T02:52:01.664Z,0
2018-08-16T02:52:42.117Z,0
2018-08-16T02:53:22.593Z,0
2018-08-16T02:54:03.046Z,0
2018-08-16T02:54:43.594Z,0
2018-08-16T02:55:24.122Z,0
2018-08-16T02:56:04.594Z,0
2018-08-16T02:56:45.071Z,0
2018-08-16T02:57:25.579Z,0
2018-08-16T02:58:06.006Z,0
2018-08-16T02:58:46.519Z,0
2018-08-16T02:59:27.031Z,0
2018-08-16T03:00:07.461Z,0
2018-08-16T03:00:48.043Z,0
2018-08-16T03:01:28.565Z,0
2018-08-16T03:02:09.046Z,0
2018-08-16T03:02:49.498Z,0
2018-08-16T03:03:29.988Z,0
2018-08-16T03:04:10.434Z,0
2018-08-16T03:04:51.004Z,0
2018-08-16T03:05:31.467Z,0
2018-08-16T03:06:11.988Z,0
2018-08-16T03:06:52.475Z,0
2018-08-16T03:07:32.915Z,0
2018-08-16T03:08:13.397Z,0
2018-08-16T03:08:53.893Z,0
2018-08-16T03:09:34.352Z,0
2018-08-16T03:10:14.858Z,0
2018-08-16T03:10:55.346Z,0
2018-08-16T03:11:35.828Z,0
2018-08-16T03:12:16.279Z,0
2018-08-16T03:12:56.767Z,0
2018-08-16T03:13:37.267Z,0
2018-08-16T03:14:17.726Z,0
2018-08-16T03:14:58.211Z,0
2018-08-16T03:15:38.743Z,0
2018-08-16T03:16:19.209Z,0
2018-08-16T03:16:59.690Z,0
2018-08-16T03:17:40.157Z,0
2018-08-16T03:18:20.642Z,0
2018-08-16T03:19:01.110Z,0
2018-08-16T03:19:41.620Z,0
2018-08-16T03:20:22.093Z,0
2018-08-16T03:21:02.596Z,0
2018-08-16T03:21:43.100Z,0
2018-08-16T03:22:23.513Z,0
2018-08-16T03:23:04.013Z,0
2018-08-16T03:23:44.536Z,0
2018-08-16T03:24:24.999Z,0
2018-08-16T03:25:05.455Z,0
2018-08-16T03:25:45.966Z,0
2018-08-16T03:26:26.432Z,0
2018-08-16T03:27:06.947Z,0
2018-08-16T03:27:47.390Z,0
2018-08-16T03:28:27.900Z,0
2018-08-16T03:29:08.405Z,0
2018-08-16T03:29:48.908Z,0
2018-08-16T03:30:29.365Z,0
2018-08-16T03:31:09.856Z,0
2018-08-16T03:31:50.341Z,0
2018-08-16T03:32:31.003Z,0
2018-08-16T03:33:11.488Z,0
2018-08-16T03:33:51.987Z,0
2018-08-16T03:34:32.503Z,0
2018-08-16T03:35:13.027Z,0
2018-08-16T03:35:53.499Z,0
2018-08-16T03:36:33.986Z,0
2018-08-16T03:37:14.542Z,0
2018-08-16T03:37:55.031Z,0
2018-08-16T03:38:35.521Z,0
2018-08-16T03:39:15.971Z,0
2018-08-16T03:39:56.472Z,0
2018-08-16T03:40:36.999Z,0
2018-08-16T03:41:17.508Z,0
2018-08-16T03:41:57.954Z,0
2018-08-16T03:42:38.508Z,0
2018-08-16T03:43:19.034Z,0
2018-08-16T03:43:59.486Z,0
2018-08-16T03:44:39.958Z,0
2018-08-16T03:45:20.399Z,0
2018-08-16T03:46:00.883Z,0
2018-08-16T03:46:41.404Z,0
2018-08-16T03:47:21.895Z,0
2018-08-16T03:48:02.383Z,0
2018-08-16T03:48:42.841Z,0
2018-08-16T03:49:23.316Z,0
2018-08-16T03:50:03.783Z,0
2018-08-16T03:50:44.284Z,0
2018-08-16T03:51:24.784Z,4
2018-08-16T03:52:05.268Z,4
2018-08-16T03:52:45.773Z,4
2018-08-16T03:53:26.244Z,0
2018-08-16T03:54:06.718Z,0
2018-08-16T03:54:47.207Z,4
2018-08-16T03:55:27.682Z,4
2018-08-16T03:56:08.205Z,0
2018-08-16T03:56:48.742Z,4
2018-08-16T03:57:29.221Z,4
2018-08-16T03:58:09.702Z,4
2018-08-16T03:58:50.203Z,4
2018-08-16T03:59:30.678Z,8
2018-08-16T04:00:11.140Z,8
2018-08-16T04:00:51.634Z,4
2018-08-16T04:01:32.095Z,8
2018-08-16T04:02:12.609Z,8
2018-08-16T04:02:53.111Z,12
2018-08-16T04:03:33.548Z,12
2018-08-16T04:04:14.115Z,12
2018-08-16T04:04:54.560Z,12
2018-08-16T04:05:35.083Z,12
2018-08-16T04:06:15.547Z,12
2018-08-16T04:06:56.039Z,16
2018-08-16T04:07:36.493Z,16
2018-08-16T04:08:16.990Z,20
2018-08-16T04:08:57.437Z,20
2018-08-16T04:09:37.993Z,24
2018-08-16T04:10:18.431Z,24
2018-08-16T04:10:58.944Z,28
2018-08-16T04:11:39.493Z,28
2018-08-16T04:12:19.950Z,28
2018-08-16T04:13:00.428Z,32
2018-08-16T04:13:40.899Z,32
2018-08-16T04:14:21.467Z,36
2018-08-16T04:15:01.928Z,40
2018-08-16T04:15:42.374Z,40
2018-08-16T04:16:22.912Z,48
2018-08-16T04:17:03.364Z,48
2018-08-16T04:17:43.887Z,52
2018-08-16T04:18:24.371Z,56
2018-08-16T04:19:04.895Z,60
2018-08-16T04:19:45.325Z,68
2018-08-16T04:20:25.798Z,68
2018-08-16T04:21:06.267Z,76
2018-08-16T04:21:46.793Z,80
2018-08-16T04:22:27.331Z,88
2018-08-16T04:23:07.797Z,96
2018-08-16T04:23:48.235Z,100
2018-08-16T04:24:28.760Z,104
2018-08-16T04:25:09.315Z,112
2018-08-16T04:25:49.732Z,116
2018-08-16T04:26:30.287Z,128
2018-08-16T04:27:10.754Z,136
2018-08-16T04:27:51.216Z,144
2018-08-16T04:28:31.671Z,152
2018-08-16T04:29:12.218Z,160
2018-08-16T04:29:52.686Z,168
2018-08-16T04:30:33.180Z,176
2018-08-16T04:31:13.642Z,184
2018-08-16T04:31:54.175Z,196
2018-08-16T04:32:34.627Z,204
2018-08-16T04:33:15.126Z,212
2018-08-16T04:33:55.666Z,228
2018-08-16T04:34:36.192Z,232
2018-08-16T04:35:16.710Z,244
2018-08-16T04:35:57.161Z,260
2018-08-16T04:36:37.662Z,268
2018-08-16T04:37:18.162Z,280
2018-08-16T04:37:58.636Z,292
2018-08-16T04:38:39.131Z,304
2018-08-16T04:39:19.629Z,312
2018-08-16T04:40:00.168Z,328
2018-08-16T04:40:40.604Z,336
2018-08-16T04:41:21.132Z,348
2018-08-16T04:42:01.677Z,364
2018-08-16T04:42:42.115Z,376
2018-08-16T04:43:22.552Z,388
2018-08-16T04:44:03.046Z,400
2018-08-16T04:44:43.505Z,416
2018-08-16T04:45:24.024Z,424
2018-08-16T04:46:04.519Z,440
2018-08-16T04:46:45.001Z,452
2018-08-16T04:47:25.493Z,468
2018-08-16T04:48:05.979Z,476
2018-08-16T04:48:46.476Z,488
2018-08-16T04:49:26.977Z,500
2018-08-16T04:50:07.466Z,508
2018-08-16T04:50:47.947Z,524
2018-08-16T04:51:28.440Z,548
2018-08-16T04:52:08.935Z,548
2018-08-16T04:52:49.493Z,560
2018-08-16T04:53:29.922Z,572
2018-08-16T04:54:10.388Z,584
2018-08-16T04:54:50.907Z,600
2018-08-16T04:55:31.399Z,612
2018-08-16T04:56:11.873Z,620
2018-08-16T04:56:52.453Z,640
2018-08-16T04:57:32.949Z,648
2018-08-16T04:58:13.417Z,660
2018-08-16T04:58:53.902Z,672
2018-08-16T04:59:34.370Z,692
2018-08-16T05:00:14.843Z,700
2018-08-16T05:00:55.331Z,724
2018-08-16T05:01:35.812Z,752
2018-08-16T05:02:16.331Z,788
2018-08-16T05:02:56.775Z,788
2018-08-16T05:03:37.303Z,772
2018-08-16T05:04:17.791Z,772
2018-08-16T05:04:58.280Z,780
2018-08-16T05:05:38.793Z,792
2018-08-16T05:06:19.265Z,800
2018-08-16T05:06:59.755Z,800
2018-08-16T05:07:40.260Z,812
2018-08-16T05:08:20.749Z,824
2018-08-16T05:09:01.264Z,832
2018-08-16T05:09:41.746Z,840
2018-08-16T05:10:22.248Z,852
2018-08-16T05:11:02.763Z,860
2018-08-16T05:11:43.295Z,864
2018-08-16T05:12:24.025Z,872
2018-08-16T05:13:04.865Z,884
2018-08-16T05:13:45.299Z,896
2018-08-16T05:14:25.803Z,904
2018-08-16T05:15:06.349Z,912
2018-08-16T05:15:46.762Z,924
2018-08-16T05:16:27.275Z,928
2018-08-16T05:17:07.756Z,940
2018-08-16T05:17:48.261Z,940
2018-08-16T05:18:28.754Z,952
2018-08-16T05:19:09.231Z,964
2018-08-16T05:19:49.734Z,972
2018-08-16T05:20:30.186Z,972
2018-08-16T05:21:10.702Z,980
2018-08-16T05:21:51.147Z,996
2018-08-16T05:22:31.632Z,1000
2018-08-16T05:23:12.345Z,1012
2018-08-16T05:23:52.680Z,1012
2018-08-16T05:24:33.194Z,1016
2018-08-16T05:25:13.695Z,1024
2018-08-16T05:25:54.158Z,1028
2018-08-16T05:26:34.649Z,1036
2018-08-16T05:27:15.184Z,1036
2018-08-16T05:27:55.709Z,1044
2018-08-16T05:28:36.240Z,1052
2018-08-16T05:29:16.688Z,1060
2018-08-16T05:29:57.235Z,1064
2018-08-16T05:30:37.745Z,1064
2018-08-16T05:31:18.169Z,1068
2018-08-16T05:31:58.648Z,1076
2018-08-16T05:32:39.143Z,1080
2018-08-16T05:33:19.703Z,1080
2018-08-16T05:34:00.186Z,1084
2018-08-16T05:34:40.712Z,1088
2018-08-16T05:35:21.166Z,1100
2018-08-16T05:36:01.676Z,1104
2018-08-16T05:36:42.185Z,1116
2018-08-16T05:37:22.666Z,1128
2018-08-16T05:38:03.270Z,1140
2018-08-16T05:38:43.775Z,1160
2018-08-16T05:39:24.262Z,1180
2018-08-16T05:40:04.715Z,1204
2018-08-16T05:40:45.236Z,1228
2018-08-16T05:41:25.732Z,1252
2018-08-16T05:42:06.220Z,1276
2018-08-16T05:42:46.700Z,1308
2018-08-16T05:43:27.419Z,1352
2018-08-16T05:44:07.737Z,1424
2018-08-16T05:44:48.229Z,1512
2018-08-16T05:45:28.731Z,1600
2018-08-16T05:46:09.204Z,1640
2018-08-16T05:46:49.674Z,1668
2018-08-16T05:47:30.180Z,1676
2018-08-16T05:48:10.706Z,1692
2018-08-16T05:48:51.212Z,1704
2018-08-16T05:49:31.644Z,1700
2018-08-16T05:50:12.111Z,1660
2018-08-16T05:50:52.774Z,1624
2018-08-16T05:51:33.165Z,1624
2018-08-16T05:52:13.603Z,1640
2018-08-16T05:52:54.094Z,1652
2018-08-16T05:53:34.592Z,1656
2018-08-16T05:54:15.097Z,1640
2018-08-16T05:54:55.597Z,1616
2018-08-16T05:55:36.085Z,1568
2018-08-16T05:56:16.607Z,1508
2018-08-16T05:56:57.118Z,1468
2018-08-16T05:57:37.615Z,1440
2018-08-16T05:58:18.057Z,1416
2018-08-16T05:58:58.545Z,1404
2018-08-16T05:59:39.004Z,1380
2018-08-16T06:00:19.514Z,1364
2018-08-16T06:01:00.010Z,1344
2018-08-16T06:01:40.517Z,1332
2018-08-16T06:02:20.994Z,1316
2018-08-16T06:03:01.480Z,1312
2018-08-16T06:03:51.745Z,1308
2018-08-16T06:04:32.177Z,1308
2018-08-16T06:05:12.711Z,1312
2018-08-16T06:05:53.225Z,1320
2018-08-16T06:06:33.677Z,1328
2018-08-16T06:07:14.161Z,1336
2018-08-16T06:07:54.638Z,1344
2018-08-16T06:08:35.145Z,1360
2018-08-16T06:09:15.651Z,1376
2018-08-16T06:09:56.138Z,1400
2018-08-16T06:10:36.624Z,1440
2018-08-16T06:11:17.148Z,1460
2018-08-16T06:11:57.608Z,1452
2018-08-16T06:12:38.158Z,1448
2018-08-16T06:13:18.730Z,1464
2018-08-16T06:13:59.369Z,1484
2018-08-16T06:14:39.717Z,1488
2018-08-16T06:15:20.335Z,1500
2018-08-16T06:16:00.754Z,1516
2018-08-16T06:16:41.235Z,1520
2018-08-16T06:17:21.685Z,1516
2018-08-16T06:18:02.229Z,1516
2018-08-16T06:18:42.701Z,1488
2018-08-16T06:19:23.228Z,1468
2018-08-16T06:20:03.675Z,1452
2018-08-16T06:20:44.168Z,1440
2018-08-16T06:21:24.689Z,1436
2018-08-16T06:22:05.199Z,1432
2018-08-16T06:22:45.700Z,1436
2018-08-16T06:23:26.208Z,1432
2018-08-16T06:24:06.907Z,1432
2018-08-16T06:24:47.268Z,1432
2018-08-16T06:25:27.820Z,1440
2018-08-16T06:26:08.283Z,1436
2018-08-16T06:26:48.773Z,1436
2018-08-16T06:27:29.373Z,1436
2018-08-16T06:28:09.894Z,1440
2018-08-16T06:28:50.320Z,1448
2018-08-16T06:29:30.812Z,1448
2018-08-16T06:30:11.351Z,1452
2018-08-16T06:30:51.822Z,1460
2018-08-16T06:31:32.335Z,1456
2018-08-16T06:32:12.769Z,1456
2018-08-16T06:32:53.457Z,1456
2018-08-16T06:33:34.065Z,1456
2018-08-16T06:34:14.493Z,1460
2018-08-16T06:34:54.989Z,1460
2018-08-16T06:35:35.522Z,1460
2018-08-16T06:36:16.038Z,1464
2018-08-16T06:36:56.489Z,1464
2018-08-16T06:37:37.066Z,1472
2018-08-16T06:38:17.443Z,1480
2018-08-16T06:38:57.953Z,1492
2018-08-16T06:39:38.460Z,1504
2018-08-16T06:40:18.945Z,1520
2018-08-16T06:40:59.388Z,1532
2018-08-16T06:41:39.938Z,1552
2018-08-16T06:42:20.456Z,1572
2018-08-16T06:43:00.826Z,1600
2018-08-16T06:43:41.341Z,1632
2018-08-16T06:44:21.828Z,1668
2018-08-16T06:45:02.325Z,1704
2018-08-16T06:45:42.935Z,1756
2018-08-16T06:46:23.470Z,1808
2018-08-16T06:47:03.899Z,1872
2018-08-16T06:47:44.373Z,1956
2018-08-16T06:48:24.869Z,2036
2018-08-16T06:49:05.345Z,2112
2018-08-16T06:49:45.861Z,2188
2018-08-16T06:50:26.387Z,2268
2018-08-16T06:51:06.856Z,2336
2018-08-16T06:51:47.410Z,2392
2018-08-16T06:52:28.005Z,2440
2018-08-16T06:53:09.972Z,2492
2018-08-16T06:53:50.504Z,2532
2018-08-16T06:54:30.969Z,2572
2018-08-16T06:55:11.480Z,2608
2018-08-16T06:55:51.991Z,2640
2018-08-16T06:56:32.441Z,2672
2018-08-16T06:57:13.064Z,2700
2018-08-16T06:57:53.526Z,2708
2018-08-16T06:58:33.991Z,2716
2018-08-16T06:59:14.498Z,2720
2018-08-16T06:59:55.009Z,2724
2018-08-16T07:00:35.465Z,2728
2018-08-16T07:01:16.036Z,2728
2018-08-16T07:01:56.453Z,2732
2018-08-16T07:02:36.956Z,2728
2018-08-16T07:03:17.583Z,2732
2018-08-16T07:03:58.023Z,2728
2018-08-16T07:04:38.548Z,1856
2018-08-16T07:05:19.126Z,2328
2018-08-16T07:05:59.645Z,4704
2018-08-16T07:06:40.149Z,4708
2018-08-16T07:07:20.651Z,5908
2018-08-16T07:08:01.125Z,5904
2018-08-16T07:08:41.588Z,5900
2018-08-16T07:09:22.090Z,5888
2018-08-16T07:10:02.532Z,5876
2018-08-16T07:10:43.047Z,5864
2018-08-16T07:11:23.529Z,5860
2018-08-16T07:12:04.079Z,5868
2018-08-16T07:12:44.480Z,5884
2018-08-16T07:13:24.976Z,5892
2018-08-16T07:14:05.452Z,5896
2018-08-16T07:14:45.956Z,5896
2018-08-16T07:15:26.442Z,5892
2018-08-16T07:16:06.951Z,5888
2018-08-16T07:16:47.405Z,5888
2018-08-16T07:17:27.938Z,5892
2018-08-16T07:18:08.418Z,5900
2018-08-16T07:18:49.017Z,5896
2018-08-16T07:19:29.371Z,5900
2018-08-16T07:20:09.860Z,5900
2018-08-16T07:20:50.336Z,5904
2018-08-16T07:21:30.822Z,5900
2018-08-16T07:22:11.287Z,5904
2018-08-16T07:22:51.774Z,5900
2018-08-16T07:23:32.263Z,5896
2018-08-16T07:24:12.739Z,5892
2018-08-16T07:24:53.340Z,5892
2018-08-16T07:25:33.722Z,5888
2018-08-16T07:26:14.222Z,5892
2018-08-16T07:26:54.693Z,5884
2018-08-16T07:27:35.186Z,5876
2018-08-16T07:28:15.717Z,5868
2018-08-16T07:28:56.220Z,5860
2018-08-16T07:29:36.668Z,5848
2018-08-16T07:30:17.167Z,5832
2018-08-16T07:30:57.710Z,5824
2018-08-16T07:31:38.174Z,5812
2018-08-16T07:32:18.648Z,5804
2018-08-16T07:32:59.181Z,5788
2018-08-16T07:33:39.616Z,5776
2018-08-16T07:34:20.146Z,5764
2018-08-16T07:35:00.636Z,5736
2018-08-16T07:35:41.128Z,5720
2018-08-16T07:36:21.615Z,5704
2018-08-16T07:37:02.058Z,5688
2018-08-16T07:37:42.570Z,5664
2018-08-16T07:38:23.060Z,5648
2018-08-16T07:39:03.562Z,5624
2018-08-16T07:39:44.031Z,5600
2018-08-16T07:40:24.549Z,5580
2018-08-16T07:41:05.089Z,5556
2018-08-16T07:41:45.556Z,5548
2018-08-16T07:42:26.061Z,5520
2018-08-16T07:43:06.532Z,5496
2018-08-16T07:43:47.009Z,5468
2018-08-16T07:44:27.546Z,5436
2018-08-16T07:45:08.003Z,5408
2018-08-16T07:45:48.674Z,5384
2018-08-16T07:46:29.094Z,5356
2018-08-16T07:47:09.480Z,5324
2018-08-16T07:47:49.981Z,5300
2018-08-16T07:48:30.438Z,5272
2018-08-16T07:49:10.954Z,5248
2018-08-16T07:49:51.437Z,5224
2018-08-16T07:50:32.006Z,5192
2018-08-16T07:51:12.485Z,5164
2018-08-16T07:51:52.959Z,5136
2018-08-16T07:52:33.433Z,5108
2018-08-16T07:53:13.842Z,5076
2018-08-16T07:53:54.431Z,5056
2018-08-16T07:54:34.891Z,5036
2018-08-16T07:55:15.405Z,5004
2018-08-16T07:55:55.898Z,4972
2018-08-16T07:56:36.379Z,4952
2018-08-16T07:57:16.888Z,4924
2018-08-16T07:57:57.335Z,4896
2018-08-16T07:58:37.893Z,4868
2018-08-16T07:59:18.400Z,4840
2018-08-16T07:59:58.893Z,4808
2018-08-16T08:00:39.389Z,4780
2018-08-16T08:01:19.899Z,4760
2018-08-16T08:02:00.387Z,4740
2018-08-16T08:02:40.903Z,4712
2018-08-16T08:03:21.349Z,4684
2018-08-16T08:04:01.902Z,4660
2018-08-16T08:04:42.354Z,4628
2018-08-16T08:05:22.836Z,4600
2018-08-16T08:06:03.346Z,4568
2018-08-16T08:06:43.800Z,4508
2018-08-16T08:07:24.381Z,4404
2018-08-16T08:08:04.800Z,4280
2018-08-16T08:08:45.322Z,4152
2018-08-16T08:09:25.894Z,4056
2018-08-16T08:10:06.323Z,3984
2018-08-16T08:10:46.816Z,3940
2018-08-16T08:11:27.326Z,3920
2018-08-16T08:12:07.820Z,3900
2018-08-16T08:12:48.309Z,3896
2018-08-16T08:13:28.846Z,3884
2018-08-16T08:14:09.325Z,3872
2018-08-16T08:14:49.825Z,3864
2018-08-16T08:15:30.383Z,3848
2018-08-16T08:16:10.841Z,3840
2018-08-16T08:16:51.358Z,3820
2018-08-16T08:17:31.794Z,3808
2018-08-16T08:18:12.329Z,3788
2018-08-16T08:18:52.767Z,3772
2018-08-16T08:19:33.263Z,3756
2018-08-16T08:20:13.734Z,3740
2018-08-16T08:20:54.341Z,3716
2018-08-16T08:21:34.838Z,3696
2018-08-16T08:22:15.325Z,3676
2018-08-16T08:22:55.786Z,3656
2018-08-16T08:23:36.278Z,3632
2018-08-16T08:24:16.768Z,3608
2018-08-16T08:24:57.248Z,3588
2018-08-16T08:25:37.744Z,3568
2018-08-16T08:26:18.234Z,3544
2018-08-16T08:26:58.740Z,3520
2018-08-16T08:27:39.183Z,3504
2018-08-16T08:28:19.675Z,3484
2018-08-16T08:29:00.207Z,3464
2018-08-16T08:29:40.681Z,3444
2018-08-16T08:30:21.194Z,3428
2018-08-16T08:31:01.663Z,3408
2018-08-16T08:31:42.359Z,3392
2018-08-16T08:32:22.673Z,3380
2018-08-16T08:33:03.160Z,3364
2018-08-16T08:33:43.690Z,3356
2018-08-16T08:34:24.128Z,3344
2018-08-16T08:35:04.653Z,3336
2018-08-16T08:35:45.139Z,3328
2018-08-16T08:36:25.624Z,3324
2018-08-16T08:37:06.163Z,3316
2018-08-16T08:37:46.649Z,3304
2018-08-16T08:38:27.113Z,3296
2018-08-16T08:39:07.625Z,3280
2018-08-16T08:39:48.159Z,3272
2018-08-16T08:40:28.615Z,3268
2018-08-16T08:41:09.129Z,3252
2018-08-16T08:41:49.580Z,3248
2018-08-16T08:42:30.126Z,3240
2018-08-16T08:43:10.593Z,3232
2018-08-16T08:43:51.056Z,3220
2018-08-16T08:44:31.610Z,3212
2018-08-16T08:45:12.081Z,3204
2018-08-16T08:45:52.570Z,3196
2018-08-16T08:46:33.060Z,3188
2018-08-16T08:47:13.646Z,3180
2018-08-16T08:47:54.100Z,3168
2018-08-16T08:48:34.645Z,3168
2018-08-16T08:49:15.086Z,3156
2018-08-16T08:49:55.552Z,3144
2018-08-16T08:50:36.084Z,3136
2018-08-16T08:51:16.583Z,3132
2018-08-16T08:51:57.076Z,3124
2018-08-16T08:52:37.696Z,3112
2018-08-16T08:53:18.152Z,3108
2018-08-16T08:53:58.700Z,3100
2018-08-16T08:54:39.209Z,3092
2018-08-16T08:55:19.706Z,3080
2018-08-16T08:56:00.399Z,3076
2018-08-16T08:56:40.869Z,3068
2018-08-16T08:57:21.396Z,3060
2018-08-16T08:58:01.866Z,3052
2018-08-16T08:58:42.358Z,3044
2018-08-16T08:59:23.007Z,3040
2018-08-16T09:00:03.399Z,3036
2018-08-16T09:00:43.984Z,3032
2018-08-16T09:01:24.491Z,3024
2018-08-16T09:02:05.094Z,3024
2018-08-16T09:02:45.703Z,3016
2018-08-16T09:03:26.180Z,3012
2018-08-16T09:04:06.786Z,3004
2018-08-16T09:04:47.141Z,2996
2018-08-16T09:05:27.621Z,2996
2018-08-16T09:06:08.123Z,2988
2018-08-16T09:06:48.641Z,2980
2018-08-16T09:07:29.103Z,2980
2018-08-16T09:08:09.591Z,2980
2018-08-16T09:08:50.123Z,2976
2018-08-16T09:09:31.113Z,2968
2018-08-16T09:10:11.876Z,2968
2018-08-16T09:10:52.366Z,2964
2018-08-16T09:11:32.877Z,2960
2018-08-16T09:12:13.498Z,2952
2018-08-16T09:12:54.148Z,2952
2018-08-16T09:13:34.552Z,2948
2018-08-16T09:14:15.034Z,2944
2018-08-16T09:14:55.532Z,2940
2018-08-16T09:15:36.026Z,2936
2018-08-16T09:16:16.578Z,2936
2018-08-16T09:16:57.050Z,2932
2018-08-16T09:17:37.503Z,2932
2018-08-16T09:18:17.964Z,2932
2018-08-16T09:18:58.483Z,2932
2018-08-16T09:19:39.028Z,2932
2018-08-16T09:20:19.478Z,2932
2018-08-16T09:21:00.004Z,2932
2018-08-16T09:21:40.378Z,2928
2018-08-16T09:22:20.920Z,2928
2018-08-16T09:23:01.413Z,2928
2018-08-16T09:23:41.957Z,2928
2018-08-16T09:24:22.447Z,2920
2018-08-16T09:25:02.953Z,2912
2018-08-16T09:25:43.430Z,2904
2018-08-16T09:26:23.943Z,2900
2018-08-16T09:27:04.408Z,2892